Yahotyn, Ukraine

5:08 PM EEST on October 02, 2014 (GMT +0300)
Mayorske | Change Station
CLOSE
Current Station
Personal Weather Station
Location: Baryshivka, Ukraine
Elevation: 325 ft
Nearby Weather Stations

Elev 325 ft 50.27 °N, 31.32 °E | Updated 2 minutes ago

Clear
Clear
61.0 °F
Feels Like 61.0 °F
N
1.6
Wind Variable Wind from East
Gusts 4.5 mph

Today
High -- | Low -- °F
--% Chance of Precip.
Yesterday
High -- | Low -- °F
Precip. -- in
6:54 AM 6:29 PM
First Quarter, 59% visible
Pressure 30.51 in
Visibility -9999.0 miles
Clouds
Dew Point 23 °F
Humidity 23%
Rainfall 0.00 in
Snow Depth Not available.
UV Not available.
Pollen Not available.
Air Quality Not available.
Flu Activity Not available.
METAR UKBB 021400Z 00000MPS CAVOK 13/M04 Q1033 88CLRD95 NOSIG

More Conditions Fewer Conditions

Pressure 30.51 in
Visibility -9999.0 miles
Clouds
Dew Point 23 °F
Humidity 23%
Rainfall 0.00 in
Snow Depth Not available.
UV Not available.
Pollen Not available.
Air Quality Not available.
Flu Activity Not available.
METAR UKBB 021400Z 00000MPS CAVOK 13/M04 Q1033 88CLRD95 NOSIG

More Conditions Fewer Conditions

10-Day Weather Forecast

Almanac

Astronomy

Oct. 02, 2014 Rise Set
Actual Time 6:54 AM EEST 6:29 PM EEST
Civil Twilight 6:21 AM EEST 7:01 PM EEST
Nautical Twilight 5:43 AM EEST 7:39 PM EEST
Astronomical Twilight 5:05 AM EEST 8:17 PM EEST
Moon 2:51 PM EEST No Moon Set
Length of Visible Light 12h 40m
Length of Day
11h 35m
Tomorrow will be 3m 44s shorter.
First Quarter, 59% of the Moon is Illuminated
Today
First Quarter
Oct 8
Full
Oct 15
Last Quarter
Oct 23
New
Oct 30
First Quarter

Yesterday's Extremes

Country Highs Country Lows

Community

WunderPhotos

Upload Photos

1,758,247 photos uploaded!

WunderBlogs® & News

Nearby

Snow Depth

Not available.

Earthquake Activity

City Distance Mag. Time & Date
No recent earthquake activity has been reported nearby.
Minimum magnitude displayed is 2.5.

Coastal Water Temperatures

Place Temperature
No Stations Reporting

Nearby Weather Stations